Time;durP1;ratioP1;P1;durP2;ratioP2;P2;SDS_P1;SDS_P2;PMS_P1;PMS_P2;Temp;Humidity;BMP_temperature;BMP_pressure;BME280_temperature;BME280_humidity;BME280_pressure;Samples;Min_cycle;Max_cycle;Signal;HPM_P1;HPM_P2
2023/10/19 00:01:25;;;;;;;0.55;0.50;;;;;;;;;;5024460;28;20958;-81
2023/10/19 00:03:55;;;;;;;0.50;0.30;;;11.40;99.90;;;;;;5024746;28;20459;-80
2023/10/19 00:06:25;;;;;;;0.40;0.20;;;11.50;99.90;;;;;;5027673;28;20189;-80
2023/10/19 00:08:52;;;;;;;1.30;1.13;;;11.60;99.90;;;;;;5023687;28;20220;-82
2023/10/19 00:11:27;;;;;;;0.50;0.50;;;11.60;99.90;;;;;;5031528;28;20193;-83
2023/10/19 00:13:57;;;;;;;0.47;0.45;;;11.70;99.90;;;;;;5027722;28;20214;-82
2023/10/19 00:16:28;;;;;;;0.40;0.20;;;11.60;99.90;;;;;;5022342;28;20651;-82
2023/10/19 00:18:55;;;;;;;1.27;1.17;;;11.60;99.90;;;;;;5023946;28;20854;-82
2023/10/19 00:21:23;;;;;;;0.40;0.30;;;11.60;99.90;;;;;;5033853;28;20189;-82
2023/10/19 00:23:55;;;;;;;0.40;0.30;;;11.60;99.90;;;;;;5029924;28;20189;-81
2023/10/19 00:26:24;;;;;;;0.63;0.55;;;;;;;;;;5034052;28;20193;-83
2023/10/19 00:28:53;;;;;;;0.40;0.20;;;11.60;99.90;;;;;;5035035;28;20225;-82
2023/10/19 00:31:22;;;;;;;0.40;0.38;;;11.50;99.90;;;;;;5039885;28;20190;-80
2023/10/19 00:33:51;;;;;;;0.50;0.40;;;11.40;99.90;;;;;;5055703;28;20549;-84
2023/10/19 00:36:20;;;;;;;1.75;1.65;;;11.50;99.90;;;;;;5040627;28;20194;-81
2023/10/19 00:41:20;;;;;;;0.40;0.30;;;11.60;99.90;;;;;;5038743;28;20189;-78
2023/10/19 00:43:48;;;;;;;0.32;0.20;;;13.70;99.90;;;;;;5030753;28;20201;-83
2023/10/19 00:48:48;;;;;;;0.40;0.30;;;11.70;99.90;;;;;;5031034;28;20686;-80
2023/10/19 00:54:16;;;;;;;0.40;0.30;;;11.80;99.90;;;;;;5029975;28;20222;-81
2023/10/19 00:56:57;;;;;;;0.40;0.30;;;11.90;99.90;;;;;;5023784;28;20229;-82
2023/10/19 00:59:23;;;;;;;0.40;0.30;;;12.00;99.90;;;;;;5020630;28;20197;-80
2023/10/19 01:01:54;;;;;;;1.20;1.07;;;12.00;99.90;;;;;;5030126;28;20191;-81
2023/10/19 01:04:23;;;;;;;0.40;0.20;;;12.00;99.90;;;;;;5030312;28;20281;-79
2023/10/19 01:07:05;;;;;;;0.30;0.20;;;12.20;99.90;;;;;;5021926;28;20910;-79
2023/10/19 01:09:38;;;;;;;0.30;0.20;;;12.20;99.90;;;;;;5024948;28;20186;-84
2023/10/19 01:12:25;;;;;;;0.40;0.30;;;12.30;99.90;;;;;;5030120;28;20618;-79
2023/10/19 01:15:13;;;;;;;0.40;0.20;;;12.30;99.90;;;;;;5025814;28;20441;-80
2023/10/19 01:17:56;;;;;;;0.40;0.30;;;12.30;99.90;;;;;;5027596;28;20561;-80
2023/10/19 01:28:48;;;;;;;1.48;1.45;;;12.30;99.90;;;;;;5026728;28;20210;-79
2023/10/19 01:33:55;;;;;;;0.40;0.30;;;12.30;99.90;;;;;;5031171;28;20215;-83
2023/10/19 01:38:48;;;;;;;0.40;0.30;;;12.40;99.90;;;;;;5025164;28;20210;-82
2023/10/19 01:41:16;;;;;;;0.40;0.30;;;12.40;99.90;;;;;;5030580;28;20186;-85
2023/10/19 01:43:43;;;;;;;0.40;0.30;;;12.50;99.90;;;;;;5031063;28;20633;-82
2023/10/19 01:46:16;;;;;;;0.77;0.77;;;12.50;99.90;;;;;;5033385;28;20459;-83
2023/10/19 01:48:46;;;;;;;0.50;0.50;;;12.60;99.90;;;;;;5023915;28;20304;-79
2023/10/19 01:51:13;;;;;;;0.40;0.30;;;12.60;99.90;;;;;;5026698;28;20445;-84
2023/10/19 01:53:42;;;;;;;0.60;0.60;;;12.30;99.90;;;;;;5025732;28;20507;-80
2023/10/19 01:56:09;;;;;;;0.40;0.23;;;12.10;99.90;;;;;;5030088;28;20186;-82
2023/10/19 01:58:39;;;;;;;1.48;1.38;;;11.90;99.90;;;;;;5053577;28;20458;-83
2023/10/19 02:03:41;;;;;;;0.40;0.30;;;;;;;;;;5033793;28;20248;-82
2023/10/19 02:06:17;;;;;;;0.95;0.77;;;11.60;99.90;;;;;;5023989;28;20644;-82
2023/10/19 02:08:51;;;;;;;2.40;1.02;;;11.50;99.90;;;;;;5022803;28;20288;-81
2023/10/19 02:11:21;;;;;;;0.50;0.40;;;11.50;99.90;;;;;;5041255;28;20197;-80
2023/10/19 02:13:49;;;;;;;0.68;0.68;;;;;;;;;;5029147;28;20197;-81
2023/10/19 02:16:24;;;;;;;0.70;0.70;;;11.50;99.90;;;;;;5031723;28;20319;-80
2023/10/19 02:18:50;;;;;;;1.17;1.10;;;11.30;99.90;;;;;;5027919;28;20249;-84
2023/10/19 02:21:21;;;;;;;0.40;0.40;;;14.70;99.90;;;;;;5027169;28;20177;-80
2023/10/19 02:23:52;;;;;;;0.40;0.40;;;11.80;99.90;;;;;;5029659;28;21002;-83
2023/10/19 02:26:19;;;;;;;1.05;0.95;;;12.00;99.90;;;;;;5030601;28;20197;-83
2023/10/19 02:28:45;;;;;;;0.50;0.50;;;;;;;;;;5023071;28;20213;-80
2023/10/19 02:31:15;;;;;;;0.77;0.57;;;12.10;99.90;;;;;;5028967;28;20185;-83
2023/10/19 02:33:45;;;;;;;1.25;0.70;;;12.10;99.90;;;;;;5024932;28;20218;-81
2023/10/19 02:36:13;;;;;;;0.37;0.30;;;12.00;99.90;;;;;;5029669;28;20185;-80
2023/10/19 02:38:41;;;;;;;1.40;0.73;;;11.80;99.90;;;;;;5043326;28;20452;-80
2023/10/19 02:41:06;;;;;;;1.02;0.40;;;11.70;99.90;;;;;;5030667;28;20224;-82
2023/10/19 02:43:32;;;;;;;0.40;0.33;;;;;;;;;;5029228;28;20217;-86
2023/10/19 02:46:02;;;;;;;0.40;0.30;;;11.70;99.90;;;;;;5022082;28;20201;-80
2023/10/19 02:48:28;;;;;;;1.58;1.48;;;;;;;;;;5019848;28;20217;-81
2023/10/19 02:50:54;;;;;;;0.40;0.30;;;;;;;;;;5039147;28;20774;-81
2023/10/19 02:53:19;;;;;;;1.77;0.70;;;11.80;99.90;;;;;;5029590;28;20471;-80
2023/10/19 02:55:45;;;;;;;1.27;0.57;;;;;;;;;;5029937;28;21125;-82
2023/10/19 02:58:11;;;;;;;2.00;1.90;;;;;;;;;;5025744;28;20208;-83
2023/10/19 03:00:39;;;;;;;0.60;0.40;;;;;;;;;;5023862;28;20432;-82
2023/10/19 03:03:06;;;;;;;0.40;0.30;;;12.00;99.90;;;;;;5018633;28;20481;-80
2023/10/19 03:05:34;;;;;;;2.53;1.77;;;11.90;99.90;;;;;;5014369;28;20549;-82
2023/10/19 03:08:00;;;;;;;0.40;0.20;;;;;;;;;;5038512;28;20275;-82
2023/10/19 03:10:34;;;;;;;3.13;2.92;;;11.70;99.90;;;;;;5024373;28;20284;-79
2023/10/19 03:13:04;;;;;;;0.73;0.73;;;11.60;99.90;;;;;;5024958;28;20211;-79
2023/10/19 03:15:32;;;;;;;0.60;0.60;;;;;;;;;;5037533;28;20178;-80
2023/10/19 03:17:58;;;;;;;1.45;1.05;;;11.40;99.90;;;;;;5018624;28;20291;-82
2023/10/19 03:20:25;;;;;;;0.93;0.93;;;11.30;99.90;;;;;;5031241;28;21691;-80
2023/10/19 03:22:51;;;;;;;0.65;0.65;;;;;;;;;;5017734;28;20196;-83
2023/10/19 03:28:11;;;;;;;0.95;0.95;;;11.20;99.90;;;;;;5026482;28;20474;-81
2023/10/19 03:30:40;;;;;;;0.40;0.30;;;11.20;99.90;;;;;;5031408;28;20200;-82
2023/10/19 03:33:08;;;;;;;1.02;0.82;;;11.20;99.90;;;;;;5018176;28;20248;-79
2023/10/19 03:35:36;;;;;;;0.65;0.52;;;11.30;99.90;;;;;;5014973;28;20243;-81
2023/10/19 03:38:07;;;;;;;1.77;1.50;;;11.40;99.90;;;;;;5015994;28;20293;-83
2023/10/19 03:40:34;;;;;;;0.40;0.30;;;11.40;99.90;;;;;;5015341;28;20200;-84
2023/10/19 03:43:05;;;;;;;0.68;0.68;;;11.50;99.90;;;;;;5019876;28;20193;-81
2023/10/19 03:45:33;;;;;;;1.15;1.13;;;11.60;99.90;;;;;;5021235;28;20284;-79
2023/10/19 03:48:06;;;;;;;0.82;0.82;;;11.50;99.90;;;;;;5021005;28;20201;-81
2023/10/19 03:50:35;;;;;;;0.40;0.40;;;;;;;;;;5026084;28;20211;-80
2023/10/19 03:53:01;;;;;;;0.73;0.73;;;11.20;99.90;;;;;;5021585;28;20208;-81
2023/10/19 03:55:28;;;;;;;0.40;0.40;;;11.60;99.90;;;;;;5019693;28;20611;-81
2023/10/19 03:57:54;;;;;;;0.40;0.30;;;11.20;99.90;;;;;;5033949;28;20217;-81
2023/10/19 04:00:24;;;;;;;1.13;0.60;;;11.10;99.90;;;;;;5037629;28;20188;-81
2023/10/19 04:02:55;;;;;;;0.68;0.68;;;11.20;99.90;;;;;;5017938;28;20205;-83
2023/10/19 04:05:22;;;;;;;0.93;0.93;;;11.30;99.90;;;;;;5030488;28;20217;-79
2023/10/19 04:07:54;;;;;;;0.50;0.43;;;11.20;99.90;;;;;;5026967;28;20277;-85
2023/10/19 04:10:29;;;;;;;0.40;0.40;;;11.30;99.90;;;;;;5023058;28;20747;-82
2023/10/19 04:12:55;;;;;;;0.88;0.85;;;11.40;99.90;;;;;;5035315;28;20266;-78
2023/10/19 04:15:21;;;;;;;2.30;0.60;;;;;;;;;;5020315;28;20274;-78
2023/10/19 04:17:48;;;;;;;0.47;0.47;;;11.40;99.90;;;;;;5027449;28;20724;-78
2023/10/19 04:22:50;;;;;;;1.95;1.85;;;11.40;99.90;;;;;;5026591;28;20190;-81
2023/10/19 04:25:16;;;;;;;0.63;0.63;;;11.20;99.90;;;;;;5049766;28;20202;-83
2023/10/19 04:27:43;;;;;;;0.95;0.85;;;11.30;99.90;;;;;;5022911;28;20221;-79
2023/10/19 04:30:15;;;;;;;1.70;1.60;;;11.20;99.90;;;;;;5031367;28;20658;-82
2023/10/19 04:32:45;;;;;;;0.30;0.30;;;11.00;99.90;;;;;;5026142;28;20202;-81
2023/10/19 04:35:13;;;;;;;0.50;0.30;;;10.80;99.90;;;;;;5038520;28;20197;-81
2023/10/19 04:37:42;;;;;;;0.65;0.65;;;10.80;99.90;;;;;;5021819;28;20210;-79
2023/10/19 04:40:09;;;;;;;1.58;1.40;;;10.70;99.90;;;;;;5047495;28;20189;-80
2023/10/19 04:42:36;;;;;;;0.85;0.85;;;10.80;99.90;;;;;;5040249;28;20185;-80
2023/10/19 04:45:02;;;;;;;1.60;1.20;;;10.80;99.90;;;;;;5023882;28;20181;-80
2023/10/19 04:47:28;;;;;;;0.30;0.30;;;10.70;99.90;;;;;;5030721;28;20221;-79
2023/10/19 04:49:53;;;;;;;0.40;0.30;;;10.70;99.90;;;;;;5016375;28;20452;-80
2023/10/19 04:52:19;;;;;;;0.40;0.20;;;10.60;99.90;;;;;;5039551;28;20201;-81
2023/10/19 04:54:44;;;;;;;0.60;0.60;;;10.70;99.90;;;;;;5025750;28;20187;-81
2023/10/19 04:57:10;;;;;;;1.70;1.60;;;10.70;99.90;;;;;;5019449;28;20244;-79
2023/10/19 04:59:36;;;;;;;1.08;1.08;;;10.80;99.90;;;;;;5021121;28;20295;-79
2023/10/19 05:02:02;;;;;;;1.60;1.23;;;10.80;99.90;;;;;;5014969;28;20198;-82
2023/10/19 05:04:29;;;;;;;0.80;0.80;;;11.10;99.90;;;;;;5021130;28;20196;-79
2023/10/19 05:06:55;;;;;;;1.67;1.55;;;11.30;99.90;;;;;;5037261;28;21110;-81
2023/10/19 05:09:20;;;;;;;1.53;0.97;;;11.30;99.90;;;;;;5017750;28;20272;-83
2023/10/19 05:11:46;;;;;;;1.17;0.87;;;;;;;;;;5003409;28;20212;-82
2023/10/19 05:14:15;;;;;;;1.80;1.70;;;11.40;99.90;;;;;;5013861;28;20211;-81
2023/10/19 05:16:41;;;;;;;0.70;0.50;;;;;;;;;;5022678;28;20448;-82
2023/10/19 05:19:07;;;;;;;0.40;0.30;;;11.50;99.90;;;;;;5030760;28;20269;-79
2023/10/19 05:21:33;;;;;;;0.60;0.60;;;11.30;99.90;;;;;;5045206;28;20656;-81
2023/10/19 05:24:02;;;;;;;0.47;0.45;;;;;;;;;;5032977;28;20189;-81
2023/10/19 05:26:28;;;;;;;1.00;1.00;;;;;;;;;;5034533;28;20435;-79
2023/10/19 05:28:54;;;;;;;0.83;0.83;;;;;;;;;;5027469;28;20220;-82
2023/10/19 05:31:20;;;;;;;0.40;0.27;;;11.10;99.90;;;;;;5027238;28;20517;-81
2023/10/19 05:33:48;;;;;;;0.40;0.40;;;11.20;99.90;;;;;;5015135;28;20550;-83
2023/10/19 05:36:14;;;;;;;0.30;0.20;;;10.80;99.90;;;;;;5023168;28;20749;-81
2023/10/19 05:38:40;;;;;;;1.48;0.93;;;11.00;99.90;;;;;;5013529;28;20205;-84
2023/10/19 05:41:05;;;;;;;0.87;0.70;;;11.00;99.90;;;;;;5017663;28;20228;-81
2023/10/19 05:43:34;;;;;;;1.53;0.90;;;11.00;99.90;;;;;;5021912;28;20194;-81
2023/10/19 05:46:00;;;;;;;1.08;1.02;;;10.90;99.90;;;;;;5011062;28;20285;-79
2023/10/19 05:48:26;;;;;;;0.63;0.63;;;10.90;99.90;;;;;;5021366;28;20217;-82
2023/10/19 05:50:51;;;;;;;1.60;1.50;;;11.00;99.90;;;;;;5015777;28;20758;-79
2023/10/19 05:53:18;;;;;;;0.93;0.93;;;11.00;99.90;;;;;;5017408;28;20214;-81
2023/10/19 05:55:44;;;;;;;0.35;0.20;;;11.20;99.90;;;;;;5019472;28;20186;-80
2023/10/19 05:58:11;;;;;;;0.80;0.80;;;11.20;99.90;;;;;;5038488;28;20626;-82
2023/10/19 06:00:37;;;;;;;0.75;0.75;;;11.20;99.90;;;;;;5034461;28;20923;-82
2023/10/19 06:03:04;;;;;;;1.17;0.87;;;11.20;99.90;;;;;;5027542;28;20225;-79
2023/10/19 06:05:30;;;;;;;0.70;0.50;;;11.10;99.90;;;;;;5024927;28;20315;-81
2023/10/19 06:07:56;;;;;;;0.65;0.65;;;11.20;99.90;;;;;;5023036;28;20216;-80
2023/10/19 06:10:22;;;;;;;0.40;0.40;;;11.20;99.90;;;;;;5022666;28;20209;-80
2023/10/19 06:12:52;;;;;;;0.73;0.73;;;11.40;99.90;;;;;;5025803;28;20324;-80
2023/10/19 06:15:24;;;;;;;0.40;0.40;;;11.60;99.90;;;;;;5032952;28;20468;-83
2023/10/19 06:17:50;;;;;;;0.73;0.73;;;11.60;99.90;;;;;;5025726;28;20201;-78
2023/10/19 06:20:28;;;;;;;1.43;1.33;;;11.60;99.90;;;;;;5021583;28;20189;-80
2023/10/19 06:22:56;;;;;;;0.47;0.47;;;11.70;99.90;;;;;;5009144;28;20440;-80
2023/10/19 06:25:23;;;;;;;0.40;0.20;;;11.80;99.90;;;;;;5036370;28;20498;-82
2023/10/19 06:27:50;;;;;;;0.40;0.40;;;11.90;99.90;;;;;;5029148;28;20312;-79
2023/10/19 06:30:18;;;;;;;0.82;0.82;;;11.90;99.90;;;;;;5027270;28;20200;-82
2023/10/19 06:33:00;;;;;;;0.40;0.30;;;11.90;99.90;;;;;;5022608;28;20202;-82
2023/10/19 06:35:28;;;;;;;0.40;0.30;;;14.00;99.90;;;;;;5023157;28;20174;-78
2023/10/19 06:37:58;;;;;;;0.80;0.57;;;;;;;;;;5045157;28;20224;-80
2023/10/19 06:40:26;;;;;;;1.35;1.25;;;12.10;99.90;;;;;;5019109;28;20448;-80
2023/10/19 06:42:55;;;;;;;2.20;1.50;;;12.10;99.90;;;;;;5025979;28;20246;-81
2023/10/19 06:45:21;;;;;;;0.50;0.50;;;12.30;99.90;;;;;;5016223;28;20450;-80
2023/10/19 06:47:48;;;;;;;5.53;2.77;;;12.60;99.90;;;;;;5021917;28;20456;-82
2023/10/19 06:50:16;;;;;;;1.15;1.15;;;12.50;99.90;;;;;;5027574;28;20280;-80
2023/10/19 06:52:43;;;;;;;2.00;1.60;;;12.50;99.90;;;;;;5023625;28;20205;-82
2023/10/19 06:55:13;;;;;;;0.40;0.30;;;14.40;99.90;;;;;;5012618;28;20436;-79
2023/10/19 06:57:45;;;;;;;0.37;0.20;;;12.50;99.90;;;;;;5018791;28;20452;-79
2023/10/19 07:00:19;;;;;;;0.77;0.77;;;12.60;99.90;;;;;;5029376;28;21076;-81
2023/10/19 07:02:52;;;;;;;0.70;0.70;;;12.80;99.90;;;;;;5016804;28;20440;-82
2023/10/19 07:05:21;;;;;;;1.07;1.07;;;13.00;99.90;;;;;;5014835;28;20450;-80
2023/10/19 07:07:49;;;;;;;0.60;0.57;;;12.90;99.90;;;;;;5017535;28;20503;-83
2023/10/19 07:10:15;;;;;;;1.07;0.93;;;12.90;99.90;;;;;;5019345;28;20459;-81
2023/10/19 07:13:00;;;;;;;0.73;0.73;;;13.00;99.90;;;;;;5024805;28;20455;-80
2023/10/19 07:15:27;;;;;;;1.07;0.93;;;13.00;99.90;;;;;;5022778;28;20670;-79
2023/10/19 07:17:54;;;;;;;0.40;0.30;;;13.00;99.90;;;;;;5040149;28;20496;-80
2023/10/19 07:20:26;;;;;;;0.40;0.30;;;13.10;99.90;;;;;;5015873;28;21615;-84
2023/10/19 07:22:52;;;;;;;0.83;0.83;;;13.10;99.90;;;;;;5037864;28;20511;-80
2023/10/19 07:25:21;;;;;;;0.40;0.30;;;13.20;99.90;;;;;;5026906;28;20807;-80
2023/10/19 07:27:50;;;;;;;0.83;0.83;;;13.30;99.90;;;;;;5021693;28;20479;-83
2023/10/19 07:30:26;;;;;;;0.40;0.40;;;13.20;99.90;;;;;;5033128;28;20474;-84
2023/10/19 07:32:54;;;;;;;0.40;0.30;;;13.00;99.90;;;;;;5026782;28;20464;-80
2023/10/19 07:35:22;;;;;;;1.90;1.80;;;12.90;99.90;;;;;;5036671;28;20449;-81
2023/10/19 07:37:49;;;;;;;0.40;0.40;;;12.80;99.90;;;;;;5019153;28;20456;-81
2023/10/19 07:40:17;;;;;;;0.83;0.77;;;;;;;;;;5022877;28;20445;-83
2023/10/19 07:42:43;;;;;;;1.33;1.23;;;12.60;99.90;;;;;;5013941;28;20446;-82
2023/10/19 07:45:11;;;;;;;1.00;0.90;;;12.60;99.90;;;;;;5021865;28;20444;-82
2023/10/19 07:47:41;;;;;;;0.70;0.50;;;12.80;99.90;;;;;;5047406;28;20464;-84
2023/10/19 07:50:16;;;;;;;0.40;0.40;;;12.90;99.90;;;;;;5026074;28;20440;-84
2023/10/19 07:52:48;;;;;;;0.60;0.60;;;12.90;99.90;;;;;;5030137;28;20474;-83
2023/10/19 07:55:15;;;;;;;0.40;0.37;;;13.00;99.90;;;;;;5020801;28;20459;-85
2023/10/19 07:57:41;;;;;;;0.50;0.50;;;;;;;;;;5020460;28;20467;-78
2023/10/19 08:00:08;;;;;;;1.13;0.83;;;13.30;99.90;;;;;;5030259;28;20444;-81
2023/10/19 08:02:41;;;;;;;1.43;1.27;;;13.30;99.90;;;;;;5015961;28;20443;-84
2023/10/19 08:05:08;;;;;;;1.40;1.30;;;13.60;99.90;;;;;;5025773;28;20457;-81
2023/10/19 08:07:36;;;;;;;1.87;1.73;;;14.00;99.90;;;;;;5027774;28;20974;-80
2023/10/19 08:10:03;;;;;;;1.10;1.10;;;;;;;;;;5032255;28;20659;-81
2023/10/19 08:12:29;;;;;;;0.40;0.30;;;15.70;99.90;;;;;;5030401;28;20455;-81
2023/10/19 08:14:55;;;;;;;0.40;0.20;;;16.20;99.90;;;;;;5026203;28;20452;-81
2023/10/19 08:17:21;;;;;;;0.40;0.30;;;;;;;;;;5016857;28;20448;-85
2023/10/19 08:19:47;;;;;;;4.03;1.40;;;;;;;;;;5036586;28;20956;-83
2023/10/19 08:22:14;;;;;;;0.70;0.70;;;;;;;;;;5033073;28;20444;-81
2023/10/19 08:24:43;;;;;;;5.30;2.93;;;;;;;;;;5041830;28;20435;-82
2023/10/19 08:27:10;;;;;;;1.63;1.57;;;;;;;;;;5029260;28;20443;-80
2023/10/19 08:29:37;;;;;;;1.97;1.83;;;;;;;;;;5025541;28;20439;-83
2023/10/19 08:32:03;;;;;;;3.60;2.10;;;;;;;;;;5022229;28;20444;-84
2023/10/19 08:34:29;;;;;;;5.70;2.73;;;22.60;99.90;;;;;;5016091;28;20893;-84
2023/10/19 08:36:55;;;;;;;2.40;2.20;;;;;;;;;;5034489;28;20475;-80
2023/10/19 08:39:24;;;;;;;1.63;1.17;;;;;;;;;;5031400;28;20443;-82
2023/10/19 08:41:53;;;;;;;3.40;3.10;;;;;;;;;;5021904;28;20880;-80
2023/10/19 08:44:20;;;;;;;1.33;1.23;;;20.50;99.90;;;;;;5021139;28;20563;-81
2023/10/19 08:46:49;;;;;;;1.37;1.27;;;;;;;;;;5034099;28;20445;-84
2023/10/19 08:49:15;;;;;;;5.23;3.70;;;20.00;99.90;;;;;;5016384;28;20914;-82
2023/10/19 08:51:44;;;;;;;1.90;1.13;;;19.90;99.90;;;;;;5020817;28;20436;-81
2023/10/19 08:54:11;;;;;;;2.37;2.23;;;20.70;99.90;;;;;;5029019;28;20895;-80
2023/10/19 08:56:39;;;;;;;1.80;1.53;;;21.60;99.90;;;;;;5039966;28;20458;-82
2023/10/19 08:59:06;;;;;;;4.33;2.97;;;;;;;;;;5020221;28;20487;-81
2023/10/19 09:01:35;;;;;;;1.73;1.63;;;;;;;;;;5007103;28;20551;-80
2023/10/19 09:04:01;;;;;;;1.30;1.00;;;;;;;;;;5017276;28;20435;-82
2023/10/19 09:06:30;;;;;;;1.03;0.93;;;25.10;99.90;;;;;;5006628;28;20505;-79
2023/10/19 09:08:57;;;;;;;0.80;0.80;;;;;;;;;;5041136;28;20965;-84
2023/10/19 09:11:24;;;;;;;1.40;1.30;;;25.30;99.90;;;;;;5022623;28;21105;-82
2023/10/19 09:13:51;;;;;;;0.60;0.57;;;24.50;99.90;;;;;;5022362;28;20477;-81
2023/10/19 09:16:19;;;;;;;1.73;1.37;;;23.40;99.90;;;;;;5033479;28;20436;-80
2023/10/19 09:18:45;;;;;;;1.30;1.20;;;;;;;;;;5019129;28;20466;-81
2023/10/19 09:21:11;;;;;;;1.03;1.03;;;;;;;;;;5018330;28;20537;-80
2023/10/19 09:23:38;;;;;;;0.77;0.77;;;21.80;99.90;;;;;;5033208;28;20440;-80
2023/10/19 09:26:07;;;;;;;2.83;1.47;;;21.60;99.90;;;;;;5017017;28;21285;-81
2023/10/19 09:28:37;;;;;;;0.93;0.93;;;21.60;99.90;;;;;;5022764;28;20472;-84
2023/10/19 09:31:03;;;;;;;1.63;1.53;;;;;;;;;;5015439;28;20562;-82
2023/10/19 09:33:33;;;;;;;1.37;1.27;;;20.90;99.90;;;;;;5022449;28;20495;-81
2023/10/19 09:36:01;;;;;;;1.43;1.10;;;20.80;99.90;;;;;;5039432;28;20487;-80
2023/10/19 09:38:27;;;;;;;1.10;1.00;;;20.90;99.90;;;;;;5022071;28;20487;-83
2023/10/19 09:40:59;;;;;;;0.97;0.87;;;20.50;99.90;;;;;;5024193;28;20448;-81
2023/10/19 09:44:09;;;;;;;;;;;;;;;;;;;;;
2023/10/19 09:47:19;;;;;;;0.73;0.43;;;20.30;99.90;;;;;;5030681;28;20432;-83
2023/10/19 09:49:44;;;;;;;2.67;1.17;;;20.40;99.90;;;;;;4997739;28;21150;-83
2023/10/19 09:52:11;;;;;;;1.43;1.33;;;21.00;99.90;;;;;;5027823;28;20439;-82
2023/10/19 09:54:52;;;;;;;2.73;1.07;;;21.30;99.90;;;;;;5018765;28;20518;-84
2023/10/19 09:57:25;;;;;;;1.47;1.37;;;21.30;99.90;;;;;;5022369;28;20460;-81
2023/10/19 09:59:58;;;;;;;1.77;1.63;;;21.90;99.90;;;;;;5038349;28;20435;-80
2023/10/19 10:02:25;;;;;;;0.60;0.60;;;;;;;;;;5032060;28;20473;-81
2023/10/19 10:04:51;;;;;;;0.50;0.40;;;22.10;99.90;;;;;;5026519;28;20450;-82
2023/10/19 10:07:17;;;;;;;0.50;0.40;;;22.50;99.90;;;;;;5018205;28;20555;-80
2023/10/19 10:09:44;;;;;;;0.60;0.40;;;;;;;;;;5015322;28;20748;-81
2023/10/19 10:12:21;;;;;;;0.50;0.30;;;22.50;99.90;;;;;;5021000;28;20497;-81
2023/10/19 10:15:02;;;;;;;2.70;0.60;;;22.40;99.90;;;;;;5026887;28;20499;-80
2023/10/19 10:17:28;;;;;;;0.40;0.20;;;20.50;99.90;;;;;;5045398;28;20464;-79
2023/10/19 10:20:14;;;;;;;0.40;0.30;;;19.90;99.90;;;;;;5027749;28;20445;-81
2023/10/19 10:22:43;;;;;;;0.50;0.40;;;;;;;;;;5013887;28;20451;-83
2023/10/19 10:25:34;;;;;;;0.50;0.47;;;19.80;99.90;;;;;;5034392;28;20458;-80
2023/10/19 10:28:02;;;;;;;0.50;0.43;;;20.00;99.90;;;;;;5018891;28;20476;-80
2023/10/19 10:30:29;;;;;;;2.93;1.90;;;20.00;99.90;;;;;;5022688;28;20478;-82
2023/10/19 10:32:56;;;;;;;0.40;0.40;;;20.00;99.90;;;;;;5037374;28;20475;-80
2023/10/19 10:35:37;;;;;;;0.80;0.70;;;20.00;99.90;;;;;;5029673;28;20543;-83
2023/10/19 10:38:11;;;;;;;0.60;0.60;;;19.70;99.90;;;;;;5030931;28;20516;-82
2023/10/19 10:40:48;;;;;;;0.50;0.50;;;19.40;99.90;;;;;;5020265;28;21958;-79
2023/10/19 10:43:15;;;;;;;0.40;0.30;;;;;;;;;;5037349;28;20440;-80
2023/10/19 10:45:41;;;;;;;0.90;0.70;;;;;;;;;;5022941;28;20554;-83
2023/10/19 10:48:19;;;;;;;2.87;1.80;;;18.70;99.90;;;;;;5021042;28;20476;-80
2023/10/19 10:50:46;;;;;;;3.80;1.17;;;;;;;;;;5014274;28;20444;-80
2023/10/19 10:53:17;;;;;;;0.40;0.30;;;19.00;99.90;;;;;;5033087;28;20516;-82
2023/10/19 10:55:43;;;;;;;0.80;0.70;;;;;;;;;;5023493;28;20516;-80
2023/10/19 10:58:09;;;;;;;1.23;0.70;;;19.10;99.90;;;;;;5029393;28;22457;-83
2023/10/19 11:00:42;;;;;;;1.10;0.30;;;18.60;99.90;;;;;;5021212;28;20525;-82
2023/10/19 11:03:09;;;;;;;0.57;0.57;;;;;;;;;;5029477;28;20445;-81
2023/10/19 11:05:38;;;;;;;0.50;0.30;;;18.30;99.90;;;;;;5045933;28;20458;-80
2023/10/19 11:08:09;;;;;;;0.50;0.50;;;18.00;99.90;;;;;;5025691;28;20559;-83
2023/10/19 11:10:36;;;;;;;0.40;0.30;;;17.90;99.90;;;;;;5025187;28;20443;-80
2023/10/19 11:13:06;;;;;;;0.40;0.30;;;17.80;99.90;;;;;;5025845;28;20463;-81
2023/10/19 11:15:33;;;;;;;0.40;0.30;;;17.80;99.90;;;;;;5025195;28;20441;-82
2023/10/19 11:17:59;;;;;;;0.60;0.60;;;;;;;;;;5026503;28;20527;-81
2023/10/19 11:20:27;;;;;;;0.40;0.27;;;17.70;99.90;;;;;;5027276;28;21104;-82
2023/10/19 11:22:55;;;;;;;0.40;0.30;;;17.60;99.90;;;;;;5030807;28;20498;-79
2023/10/19 11:25:22;;;;;;;1.37;1.27;;;17.50;99.90;;;;;;5029652;28;20431;-80
2023/10/19 11:28:01;;;;;;;0.93;0.70;;;17.50;99.90;;;;;;5026079;28;20477;-81
2023/10/19 11:30:31;;;;;;;0.40;0.30;;;17.60;99.90;;;;;;5024029;28;20433;-80
2023/10/19 11:32:57;;;;;;;0.50;0.50;;;17.50;99.90;;;;;;5029271;28;20844;-81
2023/10/19 11:35:29;;;;;;;0.40;0.30;;;17.50;99.90;;;;;;5021991;28;20497;-81
2023/10/19 11:38:04;;;;;;;0.50;0.50;;;17.40;99.90;;;;;;5019534;28;20798;-80
2023/10/19 11:40:30;;;;;;;1.00;0.90;;;17.10;99.90;;;;;;5032856;28;20470;-81
2023/10/19 11:42:56;;;;;;;0.40;0.20;;;16.90;99.90;;;;;;5029455;28;20956;-82
2023/10/19 11:45:23;;;;;;;0.40;0.30;;;;;;;;;;5019236;28;20435;-83
2023/10/19 11:47:50;;;;;;;0.40;0.20;;;16.60;99.90;;;;;;5013821;28;20698;-83
2023/10/19 11:50:16;;;;;;;0.50;0.30;;;16.60;99.90;;;;;;5015283;28;20503;-80
2023/10/19 11:52:42;;;;;;;0.40;0.20;;;16.60;99.90;;;;;;5023229;28;20512;-82
2023/10/19 11:55:08;;;;;;;0.40;0.20;;;16.60;99.90;;;;;;5020482;28;20611;-83
2023/10/19 11:57:35;;;;;;;0.40;0.30;;;16.50;99.90;;;;;;5023344;28;20459;-83
2023/10/19 12:00:08;;;;;;;0.40;0.20;;;16.50;99.90;;;;;;5028664;28;20930;-79
2023/10/19 12:02:37;;;;;;;0.40;0.20;;;16.40;99.90;;;;;;5039897;28;20450;-84
2023/10/19 12:05:04;;;;;;;0.40;0.20;;;16.30;99.90;;;;;;5006054;28;21473;-83
2023/10/19 12:07:31;;;;;;;0.40;0.20;;;16.20;99.90;;;;;;5022932;28;21658;-79
2023/10/19 12:09:58;;;;;;;1.07;0.57;;;16.20;99.90;;;;;;5028053;28;20432;-81
2023/10/19 12:12:23;;;;;;;0.40;0.27;;;16.10;99.90;;;;;;5030845;28;21198;-81
2023/10/19 12:14:50;;;;;;;0.40;0.30;;;16.00;99.90;;;;;;5017658;28;20486;-82
2023/10/19 12:17:17;;;;;;;0.40;0.20;;;16.00;99.90;;;;;;5020338;28;20225;-83
2023/10/19 12:19:43;;;;;;;0.40;0.20;;;16.00;99.90;;;;;;5019110;28;20433;-80
2023/10/19 12:22:09;;;;;;;0.40;0.20;;;;;;;;;;5021253;28;20462;-81
2023/10/19 12:24:34;;;;;;;0.40;0.20;;;15.90;99.90;;;;;;5027562;28;20193;-81
2023/10/19 12:27:02;;;;;;;0.40;0.30;;;;;;;;;;5027363;28;20464;-82
2023/10/19 12:29:27;;;;;;;0.40;0.20;;;15.90;99.90;;;;;;5044219;28;20839;-79
2023/10/19 12:31:53;;;;;;;0.80;0.73;;;16.00;99.90;;;;;;5038245;28;20554;-82
2023/10/19 12:34:19;;;;;;;0.40;0.30;;;;;;;;;;5024563;28;20213;-79
2023/10/19 12:36:46;;;;;;;0.40;0.20;;;15.90;99.90;;;;;;5016245;28;20185;-79
2023/10/19 12:39:35;;;;;;;0.40;0.20;;;15.90;99.90;;;;;;5022801;28;20453;-80
2023/10/19 12:41:58;;;;;;;0.67;0.67;;;;;;;;;;5031800;28;21310;-81
2023/10/19 12:44:24;;;;;;;0.40;0.30;;;;;;;;;;5015900;28;20446;-81
2023/10/19 12:46:52;;;;;;;0.40;0.30;;;;;;;;;;5023379;28;20444;-80
2023/10/19 12:49:25;;;;;;;0.50;0.50;;;;;;;;;;5021461;28;20469;-82
2023/10/19 12:51:51;;;;;;;0.40;0.20;;;;;;;;;;5017478;28;20444;-81
2023/10/19 12:54:17;;;;;;;0.40;0.30;;;;;;;;;;5017951;28;20486;-80
2023/10/19 12:56:43;;;;;;;0.60;0.50;;;;;;;;;;5024265;28;20444;-81
2023/10/19 12:59:09;;;;;;;0.40;0.30;;;;;;;;;;5012728;28;20463;-78
2023/10/19 13:01:35;;;;;;;2.83;1.43;;;;;;;;;;5024162;28;21138;-80
2023/10/19 13:04:13;;;;;;;0.40;0.30;;;;;;;;;;5013214;28;20443;-82
2023/10/19 13:06:40;;;;;;;0.40;0.20;;;;;;;;;;5015533;28;20444;-79
2023/10/19 13:09:09;;;;;;;0.40;0.20;;;;;;;;;;5022473;28;20474;-86
2023/10/19 13:11:35;;;;;;;1.43;0.97;;;;;;;;;;5014392;28;20443;-80
2023/10/19 13:14:00;;;;;;;0.40;0.20;;;;;;;;;;5022358;28;20512;-81
2023/10/19 13:16:27;;;;;;;1.23;0.70;;;;;;;;;;5026772;28;20910;-82
2023/10/19 13:18:53;;;;;;;0.40;0.30;;;;;;;;;;5019915;28;21329;-80
2023/10/19 13:21:25;;;;;;;0.40;0.40;;;;;;;;;;5027437;28;20469;-81
2023/10/19 13:23:53;;;;;;;0.97;0.30;;;;;;;;;;5011011;28;20509;-81
2023/10/19 13:26:19;;;;;;;0.40;0.30;;;;;;;;;;5020617;28;20496;-82
2023/10/19 13:28:45;;;;;;;0.40;0.30;;;;;;;;;;5034838;28;21279;-82
2023/10/19 13:31:15;;;;;;;0.40;0.30;;;;;;;;;;5021991;28;20448;-81
2023/10/19 13:33:45;;;;;;;0.40;0.30;;;;;;;;;;5024338;28;20468;-78
2023/10/19 13:36:12;;;;;;;0.40;0.30;;;;;;;;;;5026383;28;20451;-83
2023/10/19 13:38:38;;;;;;;0.40;0.20;;;;;;;;;;5013418;28;20479;-80
2023/10/19 13:41:11;;;;;;;0.40;0.20;;;16.40;99.90;;;;;;5019699;28;20436;-81
2023/10/19 13:43:42;;;;;;;0.40;0.30;;;16.30;99.90;;;;;;5019600;28;20448;-82
2023/10/19 13:46:08;;;;;;;0.50;0.30;;;;;;;;;;5021127;28;20990;-81
2023/10/19 13:48:35;;;;;;;0.50;0.40;;;;;;;;;;5029470;28;20471;-80
2023/10/19 13:51:12;;;;;;;0.40;0.30;;;;;;;;;;5022237;28;20583;-81
2023/10/19 13:53:38;;;;;;;0.40;0.20;;;;;;;;;;5021473;28;20479;-83